createdAt,value
2018-02-19T00:00:42.582Z,1013.11
2018-02-19T00:01:48.110Z,1013.11
2018-02-19T00:02:53.599Z,1013.11
2018-02-19T00:03:59.111Z,1013.09
2018-02-19T00:05:04.693Z,1013.08
2018-02-19T00:06:10.124Z,1013.07
2018-02-19T00:07:15.623Z,1013.06
2018-02-19T00:08:21.126Z,1013.01
2018-02-19T00:09:26.643Z,1012.99
2018-02-19T00:10:32.184Z,1012.98
2018-02-19T00:11:37.651Z,1012.95
2018-02-19T00:12:43.148Z,1012.91
2018-02-19T00:13:48.657Z,1012.94
2018-02-19T00:14:54.157Z,1012.95
2018-02-19T00:15:59.663Z,1012.90
2018-02-19T00:17:05.194Z,1012.88
2018-02-19T00:18:10.679Z,1012.91
2018-02-19T00:19:16.192Z,1012.85
2018-02-19T00:20:21.688Z,1012.87
2018-02-19T00:21:27.192Z,1012.88
2018-02-19T00:22:32.707Z,1012.84
2018-02-19T00:23:38.224Z,1012.88
2018-02-19T00:24:43.707Z,1012.89
2018-02-19T00:25:49.220Z,1012.87
2018-02-19T00:26:54.720Z,1012.87
2018-02-19T00:28:00.230Z,1012.82
2018-02-19T00:29:05.742Z,1012.83
2018-02-19T00:30:11.238Z,1012.80
2018-02-19T00:31:16.750Z,1012.78
2018-02-19T00:32:22.251Z,1012.81
2018-02-19T00:33:27.774Z,1012.80
2018-02-19T00:34:33.261Z,1012.80
2018-02-19T00:35:38.767Z,1012.75
2018-02-19T00:36:44.272Z,1012.75
2018-02-19T00:37:49.779Z,1012.70
2018-02-19T00:38:55.289Z,1012.68
2018-02-19T00:40:00.788Z,1012.68
2018-02-19T00:41:06.307Z,1012.67
2018-02-19T00:42:11.817Z,1012.66
2018-02-19T00:43:17.309Z,1012.65
2018-02-19T00:44:22.814Z,1012.64
2018-02-19T00:45:28.323Z,1012.66
2018-02-19T00:46:33.826Z,1012.64
2018-02-19T00:47:39.331Z,1012.60
2018-02-19T00:48:44.838Z,1012.62
2018-02-19T00:49:50.340Z,1012.61
2018-02-19T00:50:55.849Z,1012.60
2018-02-19T00:52:01.355Z,1012.57
2018-02-19T00:53:06.905Z,1012.55
2018-02-19T00:54:12.375Z,1012.52
2018-02-19T00:55:17.873Z,1012.49
2018-02-19T00:56:23.379Z,1012.48
2018-02-19T00:57:28.883Z,1012.47
2018-02-19T00:58:34.385Z,1012.48
2018-02-19T00:59:39.892Z,1012.41
2018-02-19T01:00:45.397Z,1012.47
2018-02-19T01:01:50.905Z,1012.42
2018-02-19T01:02:56.410Z,1012.37
2018-02-19T01:04:01.981Z,1012.37
2018-02-19T01:05:07.428Z,1012.40
2018-02-19T01:06:12.982Z,1012.40
2018-02-19T01:07:18.430Z,1012.42
2018-02-19T01:08:23.938Z,1012.39
2018-02-19T01:09:29.469Z,1012.40
2018-02-19T01:10:34.957Z,1012.37
2018-02-19T01:11:40.455Z,1012.35
2018-02-19T01:12:45.960Z,1012.34
2018-02-19T01:13:51.471Z,1012.31
2018-02-19T01:14:56.973Z,1012.33
2018-02-19T01:16:02.482Z,1012.33
2018-02-19T01:17:07.983Z,1012.32
2018-02-19T01:18:13.489Z,1012.29
2018-02-19T01:19:19.002Z,1012.28
2018-02-19T01:20:24.498Z,1012.25
2018-02-19T01:21:30.018Z,1012.24
2018-02-19T01:22:35.514Z,1012.24
2018-02-19T01:23:41.026Z,1012.24
2018-02-19T01:24:46.523Z,1012.19
2018-02-19T01:25:52.028Z,1012.22
2018-02-19T01:26:57.545Z,1012.19
2018-02-19T01:28:03.049Z,1012.18
2018-02-19T01:29:08.548Z,1012.17
2018-02-19T01:30:14.053Z,1012.13
2018-02-19T01:31:19.555Z,1012.17
2018-02-19T01:32:25.059Z,1012.15
2018-02-19T01:33:30.565Z,1012.12
2018-02-19T01:34:36.073Z,1012.14
2018-02-19T01:35:41.576Z,1012.15
2018-02-19T01:36:47.142Z,1012.13
2018-02-19T01:37:52.590Z,1012.09
2018-02-19T01:38:58.095Z,1012.11
2018-02-19T01:40:03.600Z,1012.02
2018-02-19T01:41:09.103Z,1012.06
2018-02-19T01:42:14.607Z,1012.03
2018-02-19T01:43:20.125Z,1011.99
2018-02-19T01:44:25.623Z,1011.98
2018-02-19T01:45:31.132Z,1011.96
2018-02-19T01:46:36.638Z,1011.93
2018-02-19T01:47:42.140Z,1011.94
2018-02-19T01:48:47.649Z,1011.90
2018-02-19T01:49:53.162Z,1011.92
2018-02-19T01:50:58.656Z,1011.90
2018-02-19T01:52:04.226Z,1011.95
2018-02-19T01:53:09.664Z,1011.90
2018-02-19T01:54:15.176Z,1011.92
2018-02-19T01:55:20.676Z,1011.93
2018-02-19T01:56:26.179Z,1011.89
2018-02-19T01:57:31.699Z,1011.93
2018-02-19T01:58:37.188Z,1011.92
2018-02-19T01:59:42.699Z,1011.88
2018-02-19T02:00:48.200Z,1011.86
2018-02-19T02:01:53.707Z,1011.87
2018-02-19T02:02:59.219Z,1011.84
2018-02-19T02:04:04.716Z,1011.85
2018-02-19T02:05:10.233Z,1011.86
2018-02-19T02:06:15.729Z,1011.88
2018-02-19T02:07:21.283Z,1011.85
2018-02-19T02:08:26.750Z,1011.82
2018-02-19T02:09:32.248Z,1011.79
2018-02-19T02:10:37.749Z,1011.77
2018-02-19T02:11:43.254Z,1011.70
2018-02-19T02:12:48.766Z,1011.72
2018-02-19T02:13:54.269Z,1011.71
2018-02-19T02:14:59.776Z,1011.72
2018-02-19T02:16:05.280Z,1011.71
2018-02-19T02:17:10.784Z,1011.71
2018-02-19T02:18:16.287Z,1011.67
2018-02-19T02:19:21.798Z,1011.68
2018-02-19T02:20:27.304Z,1011.70
2018-02-19T02:21:32.808Z,1011.66
2018-02-19T02:22:38.316Z,1011.61
2018-02-19T02:23:43.816Z,1011.62
2018-02-19T02:24:49.321Z,1011.60
2018-02-19T02:25:54.828Z,1011.60
2018-02-19T02:27:00.337Z,1011.59
2018-02-19T02:28:05.840Z,1011.57
2018-02-19T02:29:11.352Z,1011.58
2018-02-19T02:30:16.856Z,1011.59
2018-02-19T02:31:22.357Z,1011.59
2018-02-19T02:32:27.869Z,1011.55
2018-02-19T02:33:33.367Z,1011.54
2018-02-19T02:34:38.879Z,1011.55
2018-02-19T02:35:44.381Z,1011.54
2018-02-19T02:36:49.885Z,1011.52
2018-02-19T02:37:55.396Z,1011.54
2018-02-19T02:39:00.907Z,1011.52
2018-02-19T02:40:06.400Z,1011.51
2018-02-19T02:41:11.907Z,1011.57
2018-02-19T02:42:17.414Z,1011.53
2018-02-19T02:43:22.913Z,1011.51
2018-02-19T02:44:28.422Z,1011.51
2018-02-19T02:45:33.941Z,1011.51
2018-02-19T02:46:39.435Z,1011.50
2018-02-19T02:47:44.947Z,1011.52
2018-02-19T02:48:50.465Z,1011.50
2018-02-19T02:49:55.957Z,1011.48
2018-02-19T02:51:01.462Z,1011.48
2018-02-19T02:52:06.960Z,1011.46
2018-02-19T02:53:12.471Z,1011.45
2018-02-19T02:54:17.969Z,1011.43
2018-02-19T02:55:23.477Z,1011.45
2018-02-19T02:56:28.997Z,1011.47
2018-02-19T02:57:34.487Z,1011.46
2018-02-19T02:58:39.995Z,1011.46
2018-02-19T02:59:45.499Z,1011.45
2018-02-19T03:00:51.004Z,1011.47
2018-02-19T03:01:56.510Z,1011.50
2018-02-19T03:03:02.023Z,1011.48
2018-02-19T03:04:07.524Z,1011.51
2018-02-19T03:05:13.031Z,1011.47
2018-02-19T03:06:18.533Z,1011.47
2018-02-19T03:07:24.036Z,1011.44
2018-02-19T03:08:29.546Z,1011.42
2018-02-19T03:09:35.048Z,1011.45
2018-02-19T03:10:40.555Z,1011.43
2018-02-19T03:11:46.059Z,1011.43
2018-02-19T03:12:51.570Z,1011.46
2018-02-19T03:13:57.072Z,1011.43
2018-02-19T03:15:02.592Z,1011.47
2018-02-19T03:16:08.086Z,1011.46
2018-02-19T03:17:13.591Z,1011.46
2018-02-19T03:18:19.092Z,1011.43
2018-02-19T03:19:24.597Z,1011.49
2018-02-19T03:20:30.104Z,1011.49
2018-02-19T03:21:35.609Z,1011.53
2018-02-19T03:22:41.117Z,1011.58
2018-02-19T03:23:46.638Z,1011.59
2018-02-19T03:24:52.128Z,1011.58
2018-02-19T03:25:57.634Z,1011.56
2018-02-19T03:27:03.144Z,1011.55
2018-02-19T03:28:08.640Z,1011.57
2018-02-19T03:29:14.145Z,1011.54
2018-02-19T03:30:19.658Z,1011.57
2018-02-19T03:31:25.165Z,1011.58
2018-02-19T03:32:30.674Z,1011.60
2018-02-19T03:33:36.188Z,1011.60
2018-02-19T03:34:41.761Z,1011.57
2018-02-19T03:35:47.185Z,1011.58
2018-02-19T03:36:52.689Z,1011.56
2018-02-19T03:37:58.196Z,1011.55
2018-02-19T03:39:03.698Z,1011.54
2018-02-19T03:40:09.211Z,1011.53
2018-02-19T03:41:14.711Z,1011.55
2018-02-19T03:42:20.217Z,1011.57
2018-02-19T03:43:25.723Z,1011.51
2018-02-19T03:44:31.231Z,1011.53
2018-02-19T03:45:36.728Z,1011.52
2018-02-19T03:46:42.241Z,1011.48
2018-02-19T03:47:47.747Z,1011.48
2018-02-19T03:48:53.252Z,1011.45
2018-02-19T03:49:58.754Z,1011.40
2018-02-19T03:51:04.255Z,1011.42
2018-02-19T03:52:09.768Z,1011.39
2018-02-19T03:53:15.270Z,1011.39
2018-02-19T03:54:20.773Z,1011.43
2018-02-19T03:55:26.281Z,1011.41
2018-02-19T03:56:31.783Z,1011.37
2018-02-19T03:57:37.288Z,1011.39
2018-02-19T03:58:42.799Z,1011.38
2018-02-19T03:59:48.321Z,1011.36
2018-02-19T04:00:53.811Z,1011.34
2018-02-19T04:01:59.312Z,1011.33
2018-02-19T04:03:04.825Z,1011.29
2018-02-19T04:04:10.323Z,1011.27
2018-02-19T04:05:15.828Z,1011.27
2018-02-19T04:06:21.340Z,1011.25
2018-02-19T04:07:26.842Z,1011.27
2018-02-19T04:08:32.348Z,1011.28
2018-02-19T04:09:37.851Z,1011.27
2018-02-19T04:10:43.355Z,1011.28
2018-02-19T04:11:48.862Z,1011.25
2018-02-19T04:12:54.368Z,1011.19
2018-02-19T04:13:59.881Z,1011.16
2018-02-19T04:15:05.384Z,1011.15
2018-02-19T04:16:10.886Z,1011.14
2018-02-19T04:17:16.389Z,1011.12
2018-02-19T04:18:21.896Z,1011.07
2018-02-19T04:19:27.414Z,1011.04
2018-02-19T04:20:32.908Z,1011.03
2018-02-19T04:21:38.415Z,1011.04
2018-02-19T04:22:43.921Z,1011.05
2018-02-19T04:23:49.428Z,1011.01
2018-02-19T04:24:54.935Z,1010.99
2018-02-19T04:26:00.438Z,1010.94
2018-02-19T04:27:06.093Z,1010.95
2018-02-19T04:28:11.449Z,1010.90
2018-02-19T04:29:16.953Z,1010.92
2018-02-19T04:30:22.465Z,1010.88
2018-02-19T04:31:27.972Z,1010.84
2018-02-19T04:32:33.474Z,1010.85
2018-02-19T04:33:38.980Z,1010.86
2018-02-19T04:34:44.487Z,1010.81
2018-02-19T04:35:49.991Z,1010.89
2018-02-19T04:36:55.499Z,1010.87
2018-02-19T04:38:00.997Z,1010.83
2018-02-19T04:39:06.509Z,1010.80
2018-02-19T04:40:12.010Z,1010.82
2018-02-19T04:41:17.516Z,1010.78
2018-02-19T04:42:23.034Z,1010.75
2018-02-19T04:43:28.546Z,1010.75
2018-02-19T04:44:34.038Z,1010.69
2018-02-19T04:45:39.539Z,1010.72
2018-02-19T04:46:45.060Z,1010.73
2018-02-19T04:47:50.559Z,1010.73
2018-02-19T04:48:56.055Z,1010.70
2018-02-19T04:50:01.568Z,1010.67
2018-02-19T04:51:07.072Z,1010.67
2018-02-19T04:52:12.579Z,1010.65
2018-02-19T04:53:18.079Z,1010.71
2018-02-19T04:54:23.586Z,1010.65
2018-02-19T04:55:29.089Z,1010.68
2018-02-19T04:56:34.597Z,1010.65
2018-02-19T04:57:40.102Z,1010.64
2018-02-19T04:58:45.605Z,1010.65
2018-02-19T04:59:51.121Z,1010.64
2018-02-19T05:00:56.618Z,1010.59
2018-02-19T05:02:02.125Z,1010.60
2018-02-19T05:03:07.633Z,1010.61
2018-02-19T05:04:13.138Z,1010.62
2018-02-19T05:05:18.642Z,1010.59
2018-02-19T05:06:24.146Z,1010.60
2018-02-19T05:07:29.650Z,1010.61
2018-02-19T05:08:35.157Z,1010.61
2018-02-19T05:09:40.666Z,1010.61
2018-02-19T05:10:46.168Z,1010.55
2018-02-19T05:11:51.676Z,1010.55
2018-02-19T05:12:57.200Z,1010.53
2018-02-19T05:14:02.728Z,1010.54
2018-02-19T05:15:08.189Z,1010.56
2018-02-19T05:16:13.697Z,1010.54
2018-02-19T05:17:19.202Z,1010.52
2018-02-19T05:18:24.709Z,1010.52
2018-02-19T05:19:30.217Z,1010.52
2018-02-19T05:20:35.719Z,1010.43
2018-02-19T05:21:41.231Z,1010.43
2018-02-19T05:22:46.728Z,1010.44
2018-02-19T05:23:52.233Z,1010.47
2018-02-19T05:24:57.741Z,1010.48
2018-02-19T05:26:03.247Z,1010.52
2018-02-19T05:27:08.753Z,1010.51
2018-02-19T05:28:14.259Z,1010.50
2018-02-19T05:29:19.760Z,1010.48
2018-02-19T05:30:25.269Z,1010.48
2018-02-19T05:31:30.779Z,1010.45
2018-02-19T05:32:36.281Z,1010.44
2018-02-19T05:33:41.789Z,1010.44
2018-02-19T05:34:47.290Z,1010.41
2018-02-19T05:35:52.801Z,1010.40
2018-02-19T05:36:58.305Z,1010.39
2018-02-19T05:38:03.818Z,1010.41
2018-02-19T05:39:09.315Z,1010.42
2018-02-19T05:40:14.820Z,1010.40
2018-02-19T05:41:20.323Z,1010.39
2018-02-19T05:42:25.830Z,1010.39
2018-02-19T05:43:31.337Z,1010.35
2018-02-19T05:44:36.861Z,1010.37
2018-02-19T05:45:42.348Z,1010.35
2018-02-19T05:46:47.851Z,1010.37
2018-02-19T05:47:53.357Z,1010.35
2018-02-19T05:48:58.864Z,1010.41
2018-02-19T05:50:04.381Z,1010.40
2018-02-19T05:51:09.885Z,1010.40
2018-02-19T05:52:15.382Z,1010.45
2018-02-19T05:53:20.897Z,1010.51
2018-02-19T05:54:26.394Z,1010.53
2018-02-19T05:55:31.897Z,1010.58
2018-02-19T05:56:37.409Z,1010.54
2018-02-19T05:57:42.907Z,1010.54
2018-02-19T05:58:48.411Z,1010.51
2018-02-19T05:59:53.924Z,1010.50
2018-02-19T06:00:59.426Z,1010.52
2018-02-19T06:02:04.935Z,1010.49
2018-02-19T06:03:10.438Z,1010.52
2018-02-19T06:04:15.950Z,1010.46
2018-02-19T06:05:21.446Z,1010.50
2018-02-19T06:06:26.953Z,1010.57
2018-02-19T06:07:32.473Z,1010.55
2018-02-19T06:08:37.964Z,1010.57
2018-02-19T06:09:43.467Z,1010.55
2018-02-19T06:10:48.979Z,1010.58
2018-02-19T06:11:54.478Z,1010.52
2018-02-19T06:12:59.983Z,1010.56
2018-02-19T06:14:05.488Z,1010.55
2018-02-19T06:15:10.996Z,1010.54
2018-02-19T06:16:16.502Z,1010.56
2018-02-19T06:17:22.015Z,1010.59
2018-02-19T06:18:27.513Z,1010.56
2018-02-19T06:19:33.017Z,1010.65
2018-02-19T06:20:38.525Z,1010.60
2018-02-19T06:21:44.028Z,1010.58
2018-02-19T06:22:49.534Z,1010.59
2018-02-19T06:23:55.041Z,1010.57
2018-02-19T06:25:00.549Z,1010.53
2018-02-19T06:26:06.055Z,1010.55
2018-02-19T06:27:11.566Z,1010.56
2018-02-19T06:28:17.063Z,1010.53
2018-02-19T06:29:22.568Z,1010.61
2018-02-19T06:30:28.081Z,1010.61
2018-02-19T06:31:33.580Z,1010.61
2018-02-19T06:32:39.088Z,1010.65
2018-02-19T06:33:44.591Z,1010.70
2018-02-19T06:34:50.097Z,1010.70
2018-02-19T06:35:55.633Z,1010.76
2018-02-19T06:37:01.110Z,1010.77
2018-02-19T06:38:06.614Z,1010.79
2018-02-19T06:39:12.120Z,1010.75
2018-02-19T06:40:17.626Z,1010.79
2018-02-19T06:41:23.130Z,1010.80
2018-02-19T06:42:28.635Z,1010.81
2018-02-19T06:43:34.153Z,1010.83
2018-02-19T06:44:39.647Z,1010.83
2018-02-19T06:45:45.154Z,1010.86
2018-02-19T06:46:50.658Z,1010.92
2018-02-19T06:47:56.162Z,1010.94
2018-02-19T06:49:01.670Z,1010.94
2018-02-19T06:50:07.180Z,1010.96
2018-02-19T06:51:12.683Z,1010.97
2018-02-19T06:52:18.186Z,1011.00
2018-02-19T06:53:23.693Z,1010.99
2018-02-19T06:54:29.200Z,1010.95
2018-02-19T06:55:34.790Z,1010.96
2018-02-19T06:56:40.214Z,1010.93
2018-02-19T06:57:45.764Z,1010.88
2018-02-19T06:58:51.224Z,1010.87
2018-02-19T06:59:56.726Z,1010.94
2018-02-19T07:01:02.238Z,1010.86
2018-02-19T07:02:07.737Z,1010.85
2018-02-19T07:03:13.248Z,1010.85
2018-02-19T07:04:18.759Z,1010.81
2018-02-19T07:05:24.259Z,1010.81
2018-02-19T07:06:29.760Z,1010.83
2018-02-19T07:07:35.269Z,1010.77
2018-02-19T07:08:40.786Z,1010.76
2018-02-19T07:09:46.278Z,1010.77
2018-02-19T07:10:51.784Z,1010.71
2018-02-19T07:11:57.288Z,1010.73
2018-02-19T07:13:02.801Z,1010.69
2018-02-19T07:14:08.309Z,1010.68
2018-02-19T07:15:13.809Z,1010.66
2018-02-19T07:16:19.316Z,1010.66
2018-02-19T07:17:24.817Z,1010.67
2018-02-19T07:18:30.329Z,1010.67
2018-02-19T07:19:35.881Z,1010.72
2018-02-19T07:20:41.338Z,1010.70
2018-02-19T07:21:46.844Z,1010.76
2018-02-19T07:22:52.348Z,1010.75
2018-02-19T07:23:57.867Z,1010.71
2018-02-19T07:25:03.401Z,1010.69
2018-02-19T07:26:08.866Z,1010.67
2018-02-19T07:27:14.376Z,1010.65
2018-02-19T07:28:19.878Z,1010.66
2018-02-19T07:29:25.381Z,1010.66
2018-02-19T07:30:30.899Z,1010.65
2018-02-19T07:31:36.396Z,1010.67
2018-02-19T07:32:41.898Z,1010.68
2018-02-19T07:33:47.408Z,1010.60
2018-02-19T07:34:52.916Z,1010.55
2018-02-19T07:35:58.421Z,1010.51
2018-02-19T07:37:03.933Z,1010.44
2018-02-19T07:38:09.429Z,1010.36
2018-02-19T07:39:14.936Z,1010.35
2018-02-19T07:40:20.446Z,1010.39
2018-02-19T07:41:25.946Z,1010.34
2018-02-19T07:42:31.452Z,1010.34
2018-02-19T07:43:36.958Z,1010.38
2018-02-19T07:44:42.474Z,1010.40
2018-02-19T07:45:48.010Z,1010.45
2018-02-19T07:46:53.478Z,1010.40
2018-02-19T07:47:58.982Z,1010.43
2018-02-19T07:49:04.495Z,1010.38
2018-02-19T07:50:09.996Z,1010.38
2018-02-19T07:51:15.514Z,1010.35
2018-02-19T07:52:21.011Z,1010.35
2018-02-19T07:53:26.518Z,1010.38
2018-02-19T07:54:32.017Z,1010.35
2018-02-19T07:55:37.524Z,1010.36
2018-02-19T07:56:43.033Z,1010.41
2018-02-19T07:57:48.534Z,1010.32
2018-02-19T07:58:54.045Z,1010.37
2018-02-19T07:59:59.549Z,1010.35
2018-02-19T08:01:05.052Z,1010.35
2018-02-19T08:02:10.560Z,1010.28
2018-02-19T08:03:16.062Z,1010.29
2018-02-19T08:04:21.568Z,1010.26
2018-02-19T08:05:27.077Z,1010.29
2018-02-19T08:06:32.584Z,1010.27
2018-02-19T08:07:38.089Z,1010.26
2018-02-19T08:08:43.599Z,1010.25
2018-02-19T08:09:49.107Z,1010.25
2018-02-19T08:10:54.609Z,1010.27
2018-02-19T08:12:00.112Z,1010.26
2018-02-19T08:13:05.621Z,1010.29
2018-02-19T08:14:11.121Z,1010.26
2018-02-19T08:15:16.640Z,1010.26
2018-02-19T08:16:22.136Z,1010.26
2018-02-19T08:17:27.641Z,1010.32
2018-02-19T08:18:33.150Z,1010.30
2018-02-19T08:19:38.651Z,1010.31
2018-02-19T08:20:44.160Z,1010.29
2018-02-19T08:21:49.663Z,1010.31
2018-02-19T08:22:55.180Z,1010.30
2018-02-19T08:24:00.675Z,1010.26
2018-02-19T08:25:06.180Z,1010.29
2018-02-19T08:26:11.690Z,1010.29
2018-02-19T08:27:17.202Z,1010.25
2018-02-19T08:28:22.698Z,1010.26
2018-02-19T08:29:28.269Z,1010.23
2018-02-19T08:30:33.710Z,1010.22
2018-02-19T08:31:39.218Z,1010.24
2018-02-19T08:32:44.727Z,1010.23
2018-02-19T08:33:50.230Z,1010.20
2018-02-19T08:34:55.735Z,1010.17
2018-02-19T08:36:01.247Z,1010.19
2018-02-19T08:37:06.751Z,1010.21
2018-02-19T08:38:12.258Z,1010.22
2018-02-19T08:39:17.761Z,1010.18
2018-02-19T08:40:23.269Z,1010.19
2018-02-19T08:41:28.815Z,1010.22
2018-02-19T08:42:34.280Z,1010.19
2018-02-19T08:43:39.787Z,1010.20
2018-02-19T08:44:45.302Z,1010.14
2018-02-19T08:45:50.800Z,1010.17
2018-02-19T08:46:56.303Z,1010.14
2018-02-19T08:48:01.814Z,1010.19
2018-02-19T08:49:07.315Z,1010.12
2018-02-19T08:50:12.832Z,1010.13
2018-02-19T08:51:18.331Z,1010.10
2018-02-19T08:52:23.842Z,1010.10
2018-02-19T08:53:29.347Z,1010.10
2018-02-19T08:54:34.848Z,1010.16
2018-02-19T08:55:40.353Z,1010.11
2018-02-19T08:56:45.869Z,1010.07
2018-02-19T08:57:51.399Z,1010.04
2018-02-19T08:58:56.874Z,1010.01
2018-02-19T09:00:02.383Z,1010.01
2018-02-19T09:01:07.890Z,1009.99
2018-02-19T09:02:13.394Z,1010.01
2018-02-19T09:03:18.902Z,1009.99
2018-02-19T09:04:24.416Z,1009.97
2018-02-19T09:05:29.951Z,1009.97
2018-02-19T09:06:35.421Z,1009.94
2018-02-19T09:07:40.953Z,1009.92
2018-02-19T09:08:46.440Z,1009.89
2018-02-19T09:09:51.953Z,1009.90
2018-02-19T09:10:57.451Z,1009.91
2018-02-19T09:12:02.971Z,1009.91
2018-02-19T09:13:08.465Z,1009.96
2018-02-19T09:14:13.970Z,1009.95
2018-02-19T09:15:19.476Z,1009.98
2018-02-19T09:16:24.984Z,1009.98
2018-02-19T09:17:30.491Z,1009.97
2018-02-19T09:18:36.000Z,1009.96
2018-02-19T09:19:41.509Z,1009.96
2018-02-19T09:20:47.017Z,1009.93
2018-02-19T09:21:52.517Z,1009.92
2018-02-19T09:22:58.030Z,1009.94
2018-02-19T09:24:03.533Z,1009.91
2018-02-19T09:25:09.039Z,1009.88
2018-02-19T09:26:14.544Z,1009.87
2018-02-19T09:27:20.051Z,1009.89
2018-02-19T09:28:25.560Z,1009.91
2018-02-19T09:29:31.067Z,1009.89
2018-02-19T09:30:36.572Z,1009.92
2018-02-19T09:31:42.077Z,1009.91
2018-02-19T09:32:47.587Z,1009.92
2018-02-19T09:33:53.099Z,1009.89
2018-02-19T09:34:58.598Z,1009.87
2018-02-19T09:36:04.107Z,1009.84
2018-02-19T09:37:09.615Z,1009.87
2018-02-19T09:38:15.119Z,1009.82
2018-02-19T09:39:20.635Z,1009.87
2018-02-19T09:40:26.136Z,1009.84
2018-02-19T09:41:31.642Z,1009.82
2018-02-19T09:42:37.160Z,1009.87
2018-02-19T09:43:42.660Z,1009.83
2018-02-19T09:44:48.278Z,1009.81
2018-02-19T09:45:53.766Z,1009.83
2018-02-19T09:46:59.199Z,1009.86
2018-02-19T09:48:04.708Z,1009.84
2018-02-19T09:49:10.198Z,1009.82
2018-02-19T09:50:15.755Z,1009.88
2018-02-19T09:51:21.217Z,1009.88
2018-02-19T09:52:26.726Z,1009.91
2018-02-19T09:53:32.279Z,1009.90
2018-02-19T09:54:37.731Z,1009.86
2018-02-19T09:55:43.239Z,1009.88
2018-02-19T09:56:48.741Z,1009.89
2018-02-19T09:57:54.250Z,1009.89
2018-02-19T09:58:59.803Z,1009.92
2018-02-19T10:00:05.262Z,1009.96
2018-02-19T10:01:10.767Z,1009.94
2018-02-19T10:02:16.284Z,1009.95
2018-02-19T10:03:21.796Z,1009.94
2018-02-19T10:04:27.305Z,1009.91
2018-02-19T10:05:32.848Z,1009.90
2018-02-19T10:06:38.307Z,1009.86
2018-02-19T10:07:43.814Z,1009.86
2018-02-19T10:08:49.323Z,1009.85
2018-02-19T10:09:54.829Z,1009.84
2018-02-19T10:11:00.352Z,1009.90
2018-02-19T10:12:05.902Z,1009.82
2018-02-19T10:13:11.352Z,1009.81
2018-02-19T10:14:16.856Z,1009.80
2018-02-19T10:15:22.369Z,1009.73
2018-02-19T10:16:27.884Z,1009.73
2018-02-19T10:17:33.382Z,1009.75
2018-02-19T10:18:38.909Z,1009.75
2018-02-19T10:19:44.399Z,1009.80
2018-02-19T10:20:49.909Z,1009.76
2018-02-19T10:21:55.420Z,1009.74
2018-02-19T10:23:00.919Z,1009.69
2018-02-19T10:24:06.429Z,1009.68
2018-02-19T10:25:11.954Z,1009.62
2018-02-19T10:26:17.443Z,1009.61
2018-02-19T10:27:22.955Z,1009.61
2018-02-19T10:28:28.460Z,1009.56
2018-02-19T10:29:33.970Z,1009.55
2018-02-19T10:30:39.479Z,1009.55
2018-02-19T10:31:44.991Z,1009.53
2018-02-19T10:32:50.491Z,1009.56
2018-02-19T10:33:55.997Z,1009.55
2018-02-19T10:35:01.510Z,1009.59
2018-02-19T10:36:07.015Z,1009.58
2018-02-19T10:37:12.530Z,1009.58
2018-02-19T10:38:18.030Z,1009.55
2018-02-19T10:39:23.543Z,1009.50
2018-02-19T10:40:29.048Z,1009.50
2018-02-19T10:41:34.563Z,1009.51
2018-02-19T10:42:40.090Z,1009.50
2018-02-19T10:43:45.585Z,1009.51
2018-02-19T10:44:51.107Z,1009.54
2018-02-19T10:45:56.600Z,1009.52
2018-02-19T10:47:02.098Z,1009.51
2018-02-19T10:48:07.609Z,1009.54
2018-02-19T10:49:13.113Z,1009.53
2018-02-19T10:50:18.619Z,1009.57
2018-02-19T10:51:24.131Z,1009.57
2018-02-19T10:52:29.642Z,1009.53
2018-02-19T10:53:35.148Z,1009.56
2018-02-19T10:54:40.666Z,1009.57
2018-02-19T10:55:46.171Z,1009.56
2018-02-19T10:56:51.675Z,1009.56
2018-02-19T10:57:57.187Z,1009.50
2018-02-19T10:59:02.694Z,1009.52
2018-02-19T11:00:08.198Z,1009.54
2018-02-19T11:01:13.708Z,1009.50
2018-02-19T11:02:19.234Z,1009.49
2018-02-19T11:03:24.917Z,1009.48
2018-02-19T11:04:30.291Z,1009.48
2018-02-19T11:05:35.747Z,1009.45
2018-02-19T11:06:41.255Z,1009.43
2018-02-19T11:07:46.765Z,1009.46
2018-02-19T11:08:52.269Z,1009.47
2018-02-19T11:09:57.778Z,1009.43
2018-02-19T11:11:03.290Z,1009.51
2018-02-19T11:12:08.799Z,1009.52
2018-02-19T11:13:14.351Z,1009.52
2018-02-19T11:14:19.820Z,1009.46
2018-02-19T11:15:25.327Z,1009.41
2018-02-19T11:16:30.836Z,1009.42
2018-02-19T11:17:36.345Z,1009.44
2018-02-19T11:18:41.855Z,1009.40
2018-02-19T11:19:47.365Z,1009.41
2018-02-19T11:20:52.874Z,1009.37
2018-02-19T11:21:58.385Z,1009.33
2018-02-19T11:23:03.897Z,1009.33
2018-02-19T11:24:09.440Z,1009.28
2018-02-19T11:25:14.922Z,1009.30
2018-02-19T11:26:20.420Z,1009.32
2018-02-19T11:27:25.932Z,1009.30
2018-02-19T11:28:31.439Z,1009.32
2018-02-19T11:29:36.991Z,1009.32
2018-02-19T11:30:42.459Z,1009.28
2018-02-19T11:31:47.972Z,1009.27
2018-02-19T11:32:53.474Z,1009.23
2018-02-19T11:33:58.996Z,1009.23
2018-02-19T11:35:04.521Z,1009.21
2018-02-19T11:36:10.006Z,1009.25
2018-02-19T11:37:15.515Z,1009.28
2018-02-19T11:38:21.026Z,1009.25
2018-02-19T11:39:26.531Z,1009.21
2018-02-19T11:40:32.048Z,1009.21
2018-02-19T11:41:37.554Z,1009.18
2018-02-19T11:42:43.062Z,1009.16
2018-02-19T11:43:48.569Z,1009.16
2018-02-19T11:44:54.079Z,1009.17
2018-02-19T11:45:59.595Z,1009.16
2018-02-19T11:47:05.102Z,1009.18
2018-02-19T11:48:10.605Z,1009.16
2018-02-19T11:49:16.120Z,1009.13
2018-02-19T11:50:21.631Z,1009.13
2018-02-19T11:51:27.138Z,1009.14
2018-02-19T11:52:32.649Z,1009.11
2018-02-19T11:53:38.155Z,1009.12
2018-02-19T11:54:43.680Z,1009.06
2018-02-19T11:55:49.179Z,1009.07
2018-02-19T11:56:54.696Z,1009.07
2018-02-19T11:58:00.198Z,1009.06
2018-02-19T11:59:05.704Z,1009.02
2018-02-19T12:00:11.213Z,1009.05
2018-02-19T12:01:16.727Z,1009.05
2018-02-19T12:02:22.355Z,1009.04
2018-02-19T12:03:27.749Z,1009.03
2018-02-19T12:04:33.254Z,1009.04
2018-02-19T12:05:38.771Z,1009.01
2018-02-19T12:06:44.277Z,1008.99
2018-02-19T12:07:49.789Z,1009.03
2018-02-19T12:08:55.309Z,1009.00
2018-02-19T12:10:00.809Z,1009.02
2018-02-19T12:11:06.315Z,1009.00
2018-02-19T12:12:11.824Z,1008.97
2018-02-19T12:13:17.334Z,1008.97
2018-02-19T12:14:22.839Z,1008.95
2018-02-19T12:15:28.351Z,1008.90
2018-02-19T12:16:33.862Z,1008.90
2018-02-19T12:17:39.371Z,1008.89
2018-02-19T12:18:44.889Z,1008.87
2018-02-19T12:19:50.396Z,1008.87
2018-02-19T12:20:55.899Z,1008.87
2018-02-19T12:22:01.409Z,1008.87
2018-02-19T12:23:06.918Z,1008.83
2018-02-19T12:24:12.434Z,1008.83
2018-02-19T12:25:17.937Z,1008.83
2018-02-19T12:26:23.465Z,1008.80
2018-02-19T12:27:28.959Z,1008.77
2018-02-19T12:28:34.467Z,1008.81
2018-02-19T12:29:39.985Z,1008.79
2018-02-19T12:30:45.487Z,1008.79
2018-02-19T12:31:50.996Z,1008.79
2018-02-19T12:32:56.507Z,1008.74
2018-02-19T12:34:02.018Z,1008.72
2018-02-19T12:35:07.531Z,1008.71
2018-02-19T12:36:13.036Z,1008.68
2018-02-19T12:37:18.554Z,1008.67
2018-02-19T12:38:24.057Z,1008.60
2018-02-19T12:39:29.582Z,1008.61
2018-02-19T12:40:35.078Z,1008.61
2018-02-19T12:41:40.593Z,1008.63
2018-02-19T12:42:46.101Z,1008.64
2018-02-19T12:43:51.610Z,1008.59
2018-02-19T12:44:57.131Z,1008.56
2018-02-19T12:46:02.653Z,1008.56
2018-02-19T12:47:08.139Z,1008.57
2018-02-19T12:48:13.649Z,1008.57
2018-02-19T12:49:19.164Z,1008.54
2018-02-19T12:50:24.669Z,1008.54
2018-02-19T12:51:30.177Z,1008.50
2018-02-19T12:52:35.696Z,1008.49
2018-02-19T12:53:41.211Z,1008.47
2018-02-19T12:54:46.711Z,1008.46
2018-02-19T12:55:52.222Z,1008.47
2018-02-19T12:56:57.736Z,1008.44
2018-02-19T12:58:03.248Z,1008.45
2018-02-19T12:59:08.753Z,1008.42
2018-02-19T13:00:14.262Z,1008.38
2018-02-19T13:01:19.773Z,1008.36
2018-02-19T13:02:25.292Z,1008.36
2018-02-19T13:03:30.796Z,1008.34
2018-02-19T13:04:36.308Z,1008.36
2018-02-19T13:05:41.822Z,1008.37
2018-02-19T13:06:47.325Z,1008.35
2018-02-19T13:07:52.837Z,1008.38
2018-02-19T13:08:58.364Z,1008.39
2018-02-19T13:10:03.857Z,1008.40
2018-02-19T13:11:09.376Z,1008.39
2018-02-19T13:12:14.888Z,1008.40